createdAt,value
2018-04-28T00:01:49.044Z,4.90
2018-04-28T00:04:17.239Z,6.40
2018-04-28T00:06:45.417Z,6.13
2018-04-28T00:09:13.607Z,5.30
2018-04-28T00:11:41.815Z,5.77
2018-04-28T00:14:12.709Z,5.07
2018-04-28T00:16:47.588Z,6.57
2018-04-28T00:19:17.766Z,6.10
2018-04-28T00:21:49.641Z,6.17
2018-04-28T00:24:20.283Z,6.10
2018-04-28T00:26:49.259Z,5.80
2018-04-28T00:29:18.326Z,5.90
2018-04-28T00:32:01.427Z,6.00
2018-04-28T00:34:31.171Z,5.70
2018-04-28T00:37:02.026Z,6.37
2018-04-28T00:39:37.072Z,6.40
2018-04-28T00:42:10.068Z,6.20
2018-04-28T00:44:38.345Z,5.77
2018-04-28T00:47:09.860Z,6.53
2018-04-28T00:49:41.826Z,5.90
2018-04-28T00:52:10.009Z,6.40
2018-04-28T00:54:44.103Z,6.53
2018-04-28T00:57:13.115Z,6.67
2018-04-28T00:59:41.312Z,6.70
2018-04-28T01:02:10.407Z,7.23
2018-04-28T01:04:44.007Z,6.47
2018-04-28T01:07:12.172Z,6.10
2018-04-28T01:09:40.337Z,6.20
2018-04-28T01:12:08.517Z,7.00
2018-04-28T01:14:43.692Z,6.00
2018-04-28T01:17:24.222Z,6.30
2018-04-28T01:19:53.354Z,6.07
2018-04-28T01:22:34.639Z,5.90
2018-04-28T01:25:18.570Z,5.87
2018-04-28T01:27:49.131Z,4.83
2018-04-28T01:30:26.099Z,5.80
2018-04-28T01:46:50.412Z,5.90
2018-04-28T01:49:18.627Z,7.87
2018-04-28T01:51:51.389Z,6.77
2018-04-28T01:57:32.827Z,6.83
2018-04-28T02:00:04.349Z,6.10
2018-04-28T02:02:44.401Z,6.40
2018-04-28T02:05:30.189Z,7.10
2018-04-28T02:08:00.735Z,6.50
2018-04-28T02:10:35.653Z,6.27
2018-04-28T02:15:46.392Z,6.47
2018-04-28T02:21:34.320Z,6.47
2018-04-28T02:38:04.930Z,7.77
2018-04-28T02:43:31.629Z,8.53
2018-04-28T02:46:09.072Z,8.07
2018-04-28T02:51:35.116Z,7.83
2018-04-28T02:54:04.252Z,7.17
2018-04-28T02:56:42.242Z,7.10
2018-04-28T02:59:14.812Z,6.80
2018-04-28T03:01:44.727Z,6.93
2018-04-28T03:04:18.414Z,7.50
2018-04-28T03:09:58.620Z,6.97
2018-04-28T03:12:26.825Z,7.37
2018-04-28T03:15:09.938Z,7.10
2018-04-28T03:17:42.024Z,7.97
2018-04-28T03:20:20.051Z,7.80
2018-04-28T03:22:49.044Z,7.57
2018-04-28T03:25:26.084Z,7.47
2018-04-28T03:28:06.878Z,7.30
2018-04-28T03:30:37.119Z,6.37
2018-04-28T03:33:13.354Z,7.23
2018-04-28T03:35:49.180Z,6.97
2018-04-28T03:38:18.360Z,7.00
2018-04-28T03:43:46.356Z,7.97
2018-04-28T03:46:14.988Z,6.83
2018-04-28T03:48:46.101Z,7.30
2018-04-28T03:51:18.965Z,7.27
2018-04-28T03:53:49.669Z,7.30
2018-04-28T03:56:18.590Z,7.33
2018-04-28T03:58:59.537Z,6.67
2018-04-28T04:01:40.424Z,7.63
2018-04-28T04:04:16.568Z,7.73
2018-04-28T04:09:46.579Z,7.30
2018-04-28T04:26:01.558Z,7.07
2018-04-28T04:28:36.457Z,8.13
2018-04-28T04:31:14.391Z,8.60
2018-04-28T04:33:52.930Z,8.00
2018-04-28T04:36:27.872Z,7.30
2018-04-28T04:39:00.673Z,7.80
2018-04-28T04:54:45.511Z,7.40
2018-04-28T04:57:19.262Z,7.60
2018-04-28T05:03:00.012Z,8.40
2018-04-28T05:05:33.883Z,8.17
2018-04-28T05:21:59.378Z,8.10
2018-04-28T05:38:33.998Z,8.50
2018-04-28T05:44:13.822Z,9.03
2018-04-28T05:46:48.988Z,9.90
2018-04-28T05:52:33.018Z,11.07
2018-04-28T05:55:09.424Z,10.13
2018-04-28T05:57:47.290Z,10.43
2018-04-28T06:25:24.312Z,5.70
2018-04-28T06:27:52.587Z,6.87
2018-04-28T06:30:20.814Z,6.60
2018-04-28T06:32:51.077Z,7.20
2018-04-28T06:35:20.397Z,7.27
2018-04-28T06:37:51.264Z,7.10
2018-04-28T06:40:19.522Z,6.30
2018-04-28T06:42:47.842Z,6.77
2018-04-28T06:45:17.739Z,6.57
2018-04-28T06:47:45.967Z,6.40
2018-04-28T06:50:14.419Z,6.73
2018-04-28T06:52:42.779Z,6.00
2018-04-28T06:55:11.097Z,6.20
2018-04-28T06:57:44.724Z,6.00
2018-04-28T07:00:13.906Z,5.50
2018-04-28T07:02:42.149Z,5.77
2018-04-28T07:05:10.471Z,6.47
2018-04-28T07:07:38.687Z,5.70
2018-04-28T07:10:07.053Z,5.90
2018-04-28T07:12:35.515Z,5.40
2018-04-28T07:15:03.817Z,5.00
2018-04-28T07:17:32.782Z,5.10
2018-04-28T07:20:03.235Z,5.00
2018-04-28T07:22:31.495Z,5.07
2018-04-28T07:24:59.834Z,4.70
2018-04-28T07:27:31.025Z,4.90
2018-04-28T07:29:59.311Z,4.87
2018-04-28T07:32:27.555Z,4.27
2018-04-28T07:34:55.814Z,4.00
2018-04-28T07:37:24.160Z,3.57
2018-04-28T07:39:52.539Z,3.53
2018-04-28T07:42:21.033Z,3.17
2018-04-28T07:44:51.033Z,2.60
2018-04-28T07:47:19.247Z,2.57
2018-04-28T07:49:47.526Z,2.33
2018-04-28T07:52:15.768Z,2.43
2018-04-28T07:54:44.078Z,2.57
2018-04-28T07:57:12.296Z,2.10
2018-04-28T07:59:40.612Z,2.67
2018-04-28T08:02:08.899Z,2.47
2018-04-28T08:04:37.139Z,2.53
2018-04-28T08:07:05.554Z,3.00
2018-04-28T08:09:34.957Z,2.50
2018-04-28T08:12:04.576Z,2.37
2018-04-28T08:14:32.813Z,2.57
2018-04-28T08:17:01.070Z,2.47
2018-04-28T08:19:29.410Z,2.30
2018-04-28T08:21:57.877Z,2.50
2018-04-28T08:24:26.242Z,2.33
2018-04-28T08:26:54.522Z,2.73
2018-04-28T08:29:22.748Z,2.10
2018-04-28T08:31:51.024Z,2.75
2018-04-28T08:34:22.550Z,2.50
2018-04-28T08:36:50.843Z,2.27
2018-04-28T08:39:19.134Z,2.30
2018-04-28T08:41:47.399Z,2.20
2018-04-28T08:44:15.864Z,2.57
2018-04-28T08:46:44.182Z,2.77
2018-04-28T08:49:12.440Z,2.60
2018-04-28T08:51:40.656Z,2.87
2018-04-28T08:54:08.870Z,2.50
2018-04-28T08:56:39.518Z,2.30
2018-04-28T08:59:07.684Z,2.33
2018-04-28T09:01:36.741Z,2.40
2018-04-28T09:04:04.990Z,2.37
2018-04-28T09:06:33.284Z,2.43
2018-04-28T09:22:02.587Z,2.20
2018-04-28T09:24:30.793Z,2.60
2018-04-28T09:27:01.145Z,2.20
2018-04-28T09:29:29.539Z,2.57
2018-04-28T09:31:59.147Z,2.50
2018-04-28T09:34:27.638Z,2.03
2018-04-28T09:36:56.076Z,2.23
2018-04-28T09:39:24.332Z,2.67
2018-04-28T09:41:53.463Z,2.20
2018-04-28T09:44:22.897Z,2.17
2018-04-28T10:05:07.655Z,2.10
2018-04-28T10:07:36.010Z,2.30
2018-04-28T10:10:04.474Z,2.20
2018-04-28T10:12:34.556Z,2.23
2018-04-28T10:15:05.893Z,1.90
2018-04-28T10:17:35.279Z,2.40
2018-04-28T10:20:05.826Z,2.40
2018-04-28T10:22:34.527Z,2.00
2018-04-28T10:25:04.263Z,2.60
2018-04-28T10:27:32.788Z,2.20
2018-04-28T10:30:01.284Z,2.53
2018-04-28T10:32:31.467Z,2.00
2018-04-28T10:35:01.439Z,1.73
2018-04-28T10:37:29.738Z,2.10
2018-04-28T10:39:58.109Z,2.30
2018-04-28T10:42:27.313Z,2.20
2018-04-28T10:44:55.548Z,1.97
2018-04-28T10:47:26.700Z,2.40
2018-04-28T10:49:55.235Z,1.97
2018-04-28T10:52:23.703Z,1.97
2018-04-28T10:54:51.981Z,2.53
2018-04-28T10:57:20.248Z,2.00
2018-04-28T10:59:48.497Z,2.20
2018-04-28T11:02:16.699Z,2.57
2018-04-28T11:04:45.003Z,2.10
2018-04-28T11:07:13.248Z,2.20
2018-04-28T11:09:41.472Z,2.53
2018-04-28T11:12:09.727Z,3.10
2018-04-28T11:14:37.873Z,2.07
2018-04-28T11:17:06.052Z,2.60
2018-04-28T11:19:34.397Z,2.30
2018-04-28T11:22:02.742Z,2.93
2018-04-28T11:24:30.893Z,3.20
2018-04-28T11:26:59.053Z,3.07
2018-04-28T11:29:27.218Z,2.80
2018-04-28T11:31:55.382Z,2.30
2018-04-28T11:34:23.553Z,2.43
2018-04-28T11:36:51.747Z,2.73
2018-04-28T11:39:19.894Z,2.97
2018-04-28T11:41:48.080Z,2.60
2018-04-28T11:44:16.213Z,2.53
2018-04-28T11:46:44.397Z,2.60
2018-04-28T11:49:12.614Z,2.63
2018-04-28T11:51:40.752Z,2.50
2018-04-28T11:54:08.940Z,2.47
2018-04-28T11:56:37.154Z,2.83
2018-04-28T11:59:05.383Z,2.40
2018-04-28T12:01:33.568Z,3.17
2018-04-28T12:04:01.821Z,3.03
2018-04-28T12:06:29.969Z,2.57
2018-04-28T12:08:58.137Z,2.60
2018-04-28T12:11:26.325Z,2.87
2018-04-28T12:13:54.483Z,2.80
2018-04-28T12:16:22.687Z,2.37
2018-04-28T12:18:50.865Z,2.33
2018-04-28T12:21:19.014Z,2.33
2018-04-28T12:23:47.191Z,2.37
2018-04-28T12:26:15.337Z,2.50
2018-04-28T12:28:43.528Z,2.70
2018-04-28T12:31:11.685Z,2.10
2018-04-28T12:33:39.882Z,3.07
2018-04-28T12:36:08.079Z,2.43
2018-04-28T12:38:38.680Z,2.50
2018-04-28T12:41:08.389Z,2.60
2018-04-28T12:43:36.540Z,2.80
2018-04-28T12:46:04.692Z,2.63
2018-04-28T12:48:32.885Z,2.67
2018-04-28T12:51:01.047Z,2.57
2018-04-28T12:53:29.180Z,1.83
2018-04-28T12:55:57.378Z,2.97
2018-04-28T12:58:25.517Z,2.80
2018-04-28T13:00:53.702Z,2.97
2018-04-28T13:03:22.102Z,3.03
2018-04-28T13:05:50.324Z,2.43
2018-04-28T13:08:18.470Z,2.60
2018-04-28T13:10:46.620Z,2.30
2018-04-28T13:13:14.778Z,2.37
2018-04-28T13:15:42.934Z,2.40
2018-04-28T13:18:11.091Z,3.43
2018-04-28T13:20:39.241Z,3.40
2018-04-28T13:23:07.538Z,3.27
2018-04-28T13:25:35.732Z,2.30
2018-04-28T13:28:03.920Z,3.08
2018-04-28T13:30:32.078Z,2.57
2018-04-28T13:33:00.354Z,2.40
2018-04-28T13:35:28.548Z,2.77
2018-04-28T13:37:56.682Z,2.50
2018-04-28T13:40:24.828Z,3.23
2018-04-28T13:42:53.007Z,2.50
2018-04-28T13:45:21.162Z,2.70
2018-04-28T13:47:49.296Z,2.80
2018-04-28T13:50:17.525Z,2.40
2018-04-28T13:52:45.623Z,2.50
2018-04-28T13:55:13.791Z,3.10
2018-04-28T13:57:41.945Z,3.13
2018-04-28T14:00:10.088Z,2.40
2018-04-28T14:02:38.346Z,3.30
2018-04-28T14:05:06.499Z,2.40
2018-04-28T14:07:34.683Z,2.60
2018-04-28T14:10:02.837Z,2.37
2018-04-28T14:12:30.968Z,2.37
2018-04-28T14:14:59.169Z,2.30
2018-04-28T14:17:27.293Z,2.90
2018-04-28T14:19:55.485Z,2.73
2018-04-28T14:22:23.619Z,2.50
2018-04-28T14:24:51.799Z,2.50
2018-04-28T14:27:19.963Z,2.40
2018-04-28T14:29:48.106Z,2.95
2018-04-28T14:32:16.287Z,2.50
2018-04-28T14:34:44.415Z,2.40
2018-04-28T14:37:12.574Z,2.50
2018-04-28T14:39:40.708Z,2.30
2018-04-28T14:42:08.872Z,2.50
2018-04-28T14:44:37.027Z,2.57
2018-04-28T14:47:05.218Z,2.80
2018-04-28T14:49:33.371Z,3.00
2018-04-28T14:52:01.485Z,3.00
2018-04-28T14:54:29.638Z,3.00
2018-04-28T14:56:57.795Z,2.80
2018-04-28T14:59:25.969Z,1.97
2018-04-28T15:01:54.088Z,2.20
2018-04-28T15:04:22.273Z,2.80
2018-04-28T15:06:50.415Z,2.50
2018-04-28T15:09:18.569Z,2.70
2018-04-28T15:11:46.766Z,2.53
2018-04-28T15:14:14.896Z,2.30
2018-04-28T15:16:43.098Z,2.30
2018-04-28T15:19:11.247Z,2.90
2018-04-28T15:21:39.462Z,2.40
2018-04-28T15:24:07.597Z,2.60
2018-04-28T15:26:35.774Z,2.83
2018-04-28T15:29:03.887Z,2.60
2018-04-28T15:31:32.048Z,2.60
2018-04-28T15:34:00.250Z,2.60
2018-04-28T15:36:28.399Z,2.37
2018-04-28T15:38:56.574Z,2.30
2018-04-28T15:41:24.741Z,2.60
2018-04-28T15:43:52.913Z,2.50
2018-04-28T15:46:21.050Z,3.20
2018-04-28T15:48:49.217Z,3.00
2018-04-28T15:51:17.403Z,2.50
2018-04-28T15:53:45.567Z,3.17
2018-04-28T15:56:13.741Z,2.60
2018-04-28T15:58:41.882Z,2.73
2018-04-28T16:01:10.041Z,2.67
2018-04-28T16:03:38.177Z,2.53
2018-04-28T16:06:06.371Z,2.87
2018-04-28T16:08:34.527Z,2.50
2018-04-28T16:11:02.683Z,2.53
2018-04-28T16:13:30.833Z,2.40
2018-04-28T16:15:58.973Z,2.67
2018-04-28T16:18:27.176Z,2.63
2018-04-28T16:20:55.317Z,3.00
2018-04-28T16:23:23.477Z,10.20
2018-04-28T16:25:51.641Z,4.83
2018-04-28T16:28:19.813Z,3.40
2018-04-28T16:30:47.952Z,3.57
2018-04-28T16:33:16.107Z,3.70
2018-04-28T16:35:44.286Z,3.30
2018-04-28T16:38:12.451Z,4.27
2018-04-28T16:40:40.617Z,2.90
2018-04-28T16:43:08.956Z,3.20
2018-04-28T16:45:37.082Z,3.07
2018-04-28T16:48:05.249Z,3.13
2018-04-28T16:50:33.386Z,3.13
2018-04-28T16:53:01.576Z,3.20
2018-04-28T16:55:29.740Z,3.60
2018-04-28T16:57:58.035Z,4.20
2018-04-28T17:00:26.192Z,3.30
2018-04-28T17:02:54.343Z,3.13
2018-04-28T17:05:22.505Z,2.83
2018-04-28T17:07:50.650Z,3.00
2018-04-28T17:10:18.839Z,3.80
2018-04-28T17:12:46.992Z,3.33
2018-04-28T17:15:15.228Z,4.90
2018-04-28T17:18:02.097Z,3.20
2018-04-28T17:20:30.284Z,2.90
2018-04-28T17:22:58.446Z,3.10
2018-04-28T17:25:26.606Z,3.20
2018-04-28T17:27:54.777Z,3.37
2018-04-28T17:30:22.914Z,3.87
2018-04-28T17:32:51.091Z,3.10
2018-04-28T17:35:19.206Z,3.40
2018-04-28T17:37:47.354Z,2.77
2018-04-28T17:40:15.484Z,3.00
2018-04-28T17:42:43.675Z,4.60
2018-04-28T17:45:11.809Z,3.40
2018-04-28T17:47:39.934Z,4.97
2018-04-28T17:50:08.101Z,3.60
2018-04-28T17:52:36.234Z,3.63
2018-04-28T17:55:04.383Z,3.17
2018-04-28T17:57:32.520Z,2.93
2018-04-28T18:00:00.693Z,5.70
2018-04-28T18:02:28.837Z,3.30
2018-04-28T18:04:56.983Z,2.80
2018-04-28T18:07:25.218Z,2.90
2018-04-28T18:09:53.291Z,3.47
2018-04-28T18:12:21.439Z,3.00
2018-04-28T18:14:49.579Z,2.67
2018-04-28T18:17:17.705Z,2.87
2018-04-28T18:19:45.886Z,2.87
2018-04-28T18:22:14.033Z,3.17
2018-04-28T18:24:42.200Z,4.27
2018-04-28T18:27:10.353Z,3.10
2018-04-28T18:29:38.532Z,3.00
2018-04-28T18:32:06.649Z,3.60
2018-04-28T18:34:34.800Z,2.87
2018-04-28T18:37:02.942Z,3.10
2018-04-28T18:39:31.068Z,3.17
2018-04-28T18:41:59.231Z,3.93
2018-04-28T18:44:27.404Z,3.33
2018-04-28T18:46:55.538Z,3.40
2018-04-28T18:49:23.698Z,3.47
2018-04-28T18:51:51.890Z,3.23
2018-04-28T18:54:20.072Z,3.10
2018-04-28T18:56:48.253Z,3.70
2018-04-28T18:59:16.425Z,3.43
2018-04-28T19:01:44.573Z,3.10
2018-04-28T19:04:12.732Z,2.90
2018-04-28T19:06:40.904Z,3.33
2018-04-28T19:09:09.035Z,2.67
2018-04-28T19:11:37.173Z,3.20
2018-04-28T19:14:05.349Z,2.67
2018-04-28T19:16:33.503Z,3.23
2018-04-28T19:19:01.685Z,4.07
2018-04-28T19:21:29.871Z,2.90
2018-04-28T19:23:58.007Z,3.60
2018-04-28T19:26:26.193Z,3.07
2018-04-28T19:28:54.367Z,3.33
2018-04-28T19:31:22.524Z,3.20
2018-04-28T19:33:50.685Z,3.27
2018-04-28T19:36:18.848Z,2.83
2018-04-28T19:38:47.034Z,3.10
2018-04-28T19:41:15.158Z,3.07
2018-04-28T19:43:43.301Z,3.23
2018-04-28T19:46:11.443Z,4.30
2018-04-28T19:48:39.612Z,4.33
2018-04-28T19:51:07.755Z,4.67
2018-04-28T19:53:35.931Z,3.73
2018-04-28T19:56:04.909Z,3.27
2018-04-28T19:58:33.064Z,3.67
2018-04-28T20:01:01.224Z,3.00
2018-04-28T20:03:29.400Z,3.80
2018-04-28T20:05:57.518Z,3.93
2018-04-28T20:08:25.694Z,3.17
2018-04-28T20:10:53.824Z,2.70
2018-04-28T20:13:21.967Z,3.30
2018-04-28T20:15:50.141Z,4.07
2018-04-28T20:18:18.307Z,3.13
2018-04-28T20:20:46.465Z,3.23
2018-04-28T20:23:26.419Z,2.87
2018-04-28T20:25:54.591Z,3.00
2018-04-28T20:28:22.792Z,3.00
2018-04-28T20:30:50.958Z,3.60
2018-04-28T20:33:19.129Z,3.40
2018-04-28T20:35:47.315Z,2.77
2018-04-28T20:38:15.426Z,3.40
2018-04-28T20:40:43.596Z,3.30
2018-04-28T20:43:11.760Z,3.00
2018-04-28T20:45:39.925Z,2.80
2018-04-28T20:48:08.124Z,3.60
2018-04-28T20:50:36.307Z,3.67
2018-04-28T20:53:04.471Z,3.40
2018-04-28T20:55:32.621Z,3.70
2018-04-28T20:58:00.833Z,3.70
2018-04-28T21:00:28.983Z,3.47
2018-04-28T21:02:57.133Z,4.07
2018-04-28T21:05:25.297Z,3.60
2018-04-28T21:07:53.428Z,3.30
2018-04-28T21:10:21.561Z,3.43
2018-04-28T21:12:49.718Z,3.33
2018-04-28T21:15:17.874Z,3.73
2018-04-28T21:17:46.030Z,3.87
2018-04-28T21:20:14.221Z,3.70
2018-04-28T21:22:42.418Z,3.13
2018-04-28T21:25:10.588Z,3.00
2018-04-28T21:27:38.769Z,3.30
2018-04-28T21:30:06.950Z,3.47
2018-04-28T21:32:35.101Z,3.10
2018-04-28T21:35:03.279Z,3.30
2018-04-28T21:37:31.480Z,3.30
2018-04-28T21:39:59.722Z,3.27
2018-04-28T21:42:27.900Z,3.37
2018-04-28T21:44:56.076Z,3.33
2018-04-28T21:47:24.216Z,3.73
2018-04-28T21:49:52.390Z,3.50
2018-04-28T21:52:20.560Z,3.83
2018-04-28T21:54:48.742Z,4.30
2018-04-28T21:57:16.919Z,3.93
2018-04-28T21:59:45.074Z,4.10
2018-04-28T22:02:13.269Z,4.10
2018-04-28T22:04:41.500Z,4.17
2018-04-28T22:07:09.694Z,4.20
2018-04-28T22:09:37.867Z,4.00
2018-04-28T22:12:06.021Z,4.60
2018-04-28T22:14:34.237Z,3.57
2018-04-28T22:17:02.470Z,3.77
2018-04-28T22:19:30.661Z,4.23
2018-04-28T22:21:58.840Z,3.97
2018-04-28T22:24:27.031Z,5.13
2018-04-28T22:26:55.185Z,3.97
2018-04-28T22:29:23.363Z,3.83
2018-04-28T22:31:51.531Z,3.90
2018-04-28T22:34:19.672Z,4.10
2018-04-28T22:36:47.830Z,4.57
2018-04-28T22:39:15.963Z,4.43
2018-04-28T22:41:44.111Z,4.37
2018-04-28T22:44:12.267Z,4.47
2018-04-28T22:46:40.487Z,4.80
2018-04-28T22:49:08.638Z,5.90
2018-04-28T22:51:36.800Z,4.30
2018-04-28T22:54:04.960Z,4.47
2018-04-28T22:56:33.153Z,4.30
2018-04-28T22:59:01.329Z,3.73
2018-04-28T23:01:29.467Z,4.30
2018-04-28T23:03:57.600Z,4.20
2018-04-28T23:06:25.772Z,4.23
2018-04-28T23:08:54.001Z,4.60
2018-04-28T23:11:22.096Z,4.93
2018-04-28T23:13:50.251Z,4.70
2018-04-28T23:16:18.425Z,5.13
2018-04-28T23:18:46.569Z,5.47
2018-04-28T23:21:14.761Z,4.97
2018-04-28T23:23:42.880Z,5.30
2018-04-28T23:26:11.029Z,5.10
2018-04-28T23:28:39.162Z,5.50
2018-04-28T23:31:07.343Z,5.47
2018-04-28T23:33:35.492Z,5.37
2018-04-28T23:36:03.654Z,4.83
2018-04-28T23:38:31.793Z,4.67
2018-04-28T23:40:59.941Z,5.00
2018-04-28T23:43:28.073Z,5.57
2018-04-28T23:45:56.251Z,5.47
2018-04-28T23:48:24.415Z,5.10
2018-04-28T23:50:52.562Z,6.10
2018-04-28T23:53:20.825Z,4.80
2018-04-28T23:55:48.975Z,4.77
2018-04-28T23:58:17.146Z,4.53
